Hartshorne, Oklahoma
Current Conditions -  °F | °C
As of 10:53 AM on Thursday 30 Oct 2014 (Local Time) from KMLC Reporting Station
Few Clouds Few Clouds  
Wind Chill: 65°   Ceiling: Unl
Heat Index: 65°   Visibility: 10mi
Dew Point: 46°   Wind: 8mph
Humidity: 50%   Direction: 220°SW
Pressure: 30.15"   Gusts: NA
Location:  34.85°N, 95.56°W
Report Text: KMLC 301553Z AUTO 22007KT 10SM FEW090 FEW110 18/08 A3015 RMK AO2 SLP205 T01830078
Loading
Personal Weather Stations






























Interactive Weather Map
Tropical Storm Tracking
New forecast layout! Learn more

10-Day Weather Forecast

Advertisements
Track Severe Weather on mobile